Time;durP1;ratioP1;P1;durP2;ratioP2;P2;SDS_P1;SDS_P2;PMS_P1;PMS_P2;Temp;Humidity;BMP_temperature;BMP_pressure;BME280_temperature;BME280_humidity;BME280_pressure;Samples;Min_cycle;Max_cycle;Signal;HPM_P1;HPM_P2
2021/06/16 00:00:06;;;;;;;3.57;2.20;;;21.80;54.50;;;;;;5115405;28;20967;-73
2021/06/16 00:02:33;;;;;;;4.80;2.10;;;21.90;54.70;;;;;;5115602;28;20446;-73
2021/06/16 00:04:59;;;;;;;2.03;1.87;;;21.80;54.80;;;;;;5115561;28;20458;-73
2021/06/16 00:07:26;;;;;;;3.13;2.27;;;21.70;54.70;;;;;;5115535;28;20443;-73
2021/06/16 00:09:54;;;;;;;2.90;1.70;;;21.70;54.90;;;;;;5115940;28;20461;-73
2021/06/16 00:12:24;;;;;;;6.67;2.10;;;21.70;55.00;;;;;;5115657;28;20809;-73
2021/06/16 00:14:51;;;;;;;3.83;2.13;;;21.60;55.00;;;;;;5115296;28;20478;-73
2021/06/16 00:17:17;;;;;;;2.33;2.00;;;21.70;55.30;;;;;;5115282;28;20450;-73
2021/06/16 00:19:44;;;;;;;5.57;2.77;;;21.60;55.50;;;;;;5115469;28;20439;-73
2021/06/16 00:22:12;;;;;;;5.70;2.70;;;21.60;55.40;;;;;;5115335;28;20443;-73
2021/06/16 00:24:39;;;;;;;3.77;2.27;;;21.60;55.40;;;;;;5115180;28;20465;-73
2021/06/16 00:27:07;;;;;;;7.80;2.70;;;21.60;55.60;;;;;;5115048;28;20443;-73
2021/06/16 00:29:34;;;;;;;3.27;2.27;;;21.60;55.70;;;;;;5114453;28;20438;-73
2021/06/16 00:32:01;;;;;;;7.17;2.10;;;21.60;55.90;;;;;;5115372;28;20447;-73
2021/06/16 00:34:28;;;;;;;4.30;2.80;;;21.50;55.70;;;;;;5114855;28;21046;-73
2021/06/16 00:36:54;;;;;;;5.80;2.37;;;21.50;55.80;;;;;;5114951;28;20446;-73
2021/06/16 00:39:21;;;;;;;5.97;2.97;;;21.50;55.90;;;;;;5115183;28;20443;-73
2021/06/16 00:41:48;;;;;;;3.13;2.43;;;21.40;55.80;;;;;;5114973;28;20446;-73
2021/06/16 00:44:16;;;;;;;2.80;2.30;;;21.30;55.90;;;;;;5114879;28;20447;-73
2021/06/16 00:46:43;;;;;;;3.63;2.47;;;21.30;55.80;;;;;;5114889;28;20450;-73
2021/06/16 00:49:09;;;;;;;5.60;2.77;;;21.30;56.00;;;;;;5114489;28;20814;-73
2021/06/16 00:51:36;;;;;;;5.17;2.50;;;21.20;56.20;;;;;;5114843;28;20446;-73
2021/06/16 00:54:09;;;;;;;2.27;2.07;;;21.20;56.20;;;;;;5114337;28;20455;-73
2021/06/16 00:56:37;;;;;;;4.90;2.63;;;21.10;56.20;;;;;;5114604;28;20470;-73
2021/06/16 00:59:03;;;;;;;3.70;2.30;;;21.10;56.40;;;;;;5114625;28;20447;-73
2021/06/16 01:01:33;;;;;;;3.00;2.70;;;21.00;56.40;;;;;;5114539;28;20446;-73
2021/06/16 01:04:08;;;;;;;4.10;2.30;;;21.00;56.50;;;;;;5114550;28;20455;-73
2021/06/16 01:06:42;;;;;;;4.43;2.40;;;21.00;56.60;;;;;;5114416;28;20438;-73
2021/06/16 01:09:15;;;;;;;3.37;2.23;;;20.90;56.80;;;;;;5114454;28;20427;-73
2021/06/16 01:11:57;;;;;;;4.63;2.97;;;21.00;56.90;;;;;;5114398;28;20427;-73
2021/06/16 01:14:37;;;;;;;5.43;2.97;;;20.90;56.90;;;;;;5114270;28;20462;-73
2021/06/16 01:17:09;;;;;;;4.63;2.80;;;20.80;56.90;;;;;;5114321;28;20426;-73
2021/06/16 01:19:54;;;;;;;4.27;2.40;;;20.80;57.10;;;;;;5114780;28;20560;-73
2021/06/16 01:22:35;;;;;;;4.27;1.97;;;20.80;57.30;;;;;;5114252;28;20427;-72
2021/06/16 01:25:09;;;;;;;4.23;2.00;;;20.70;57.10;;;;;;5114103;28;20469;-72
2021/06/16 01:27:38;;;;;;;2.20;2.00;;;20.70;57.20;;;;;;5113913;28;20897;-72
2021/06/16 01:30:07;;;;;;;4.83;2.30;;;20.70;57.40;;;;;;5114144;28;20451;-72
2021/06/16 01:32:34;;;;;;;5.53;2.57;;;20.60;57.60;;;;;;5114057;28;20453;-72
2021/06/16 01:35:01;;;;;;;5.07;2.67;;;20.60;57.60;;;;;;5113854;28;20486;-73
2021/06/16 01:37:28;;;;;;;4.37;2.57;;;20.60;57.70;;;;;;5113958;28;20442;-72
2021/06/16 01:39:57;;;;;;;4.70;2.40;;;20.60;58.00;;;;;;5113281;28;20446;-72
2021/06/16 01:42:27;;;;;;;6.17;2.40;;;20.60;58.20;;;;;;5113799;28;20446;-72
2021/06/16 01:44:56;;;;;;;5.27;2.40;;;20.50;58.40;;;;;;5113564;28;20455;-73
2021/06/16 01:47:24;;;;;;;4.50;2.60;;;20.50;58.60;;;;;;5113820;28;20443;-74
2021/06/16 01:49:54;;;;;;;3.33;2.43;;;20.50;58.70;;;;;;5113834;28;20450;-73
2021/06/16 01:52:22;;;;;;;4.87;2.67;;;20.50;58.80;;;;;;5113835;28;20435;-73
2021/06/16 01:54:49;;;;;;;3.63;2.40;;;20.50;58.90;;;;;;5114315;28;20482;-72
2021/06/16 01:57:18;;;;;;;8.93;2.63;;;20.60;59.60;;;;;;5113720;28;20534;-73
2021/06/16 01:59:46;;;;;;;2.90;2.43;;;20.60;59.40;;;;;;5114477;28;20431;-72
2021/06/16 02:02:14;;;;;;;7.20;2.30;;;20.60;59.90;;;;;;5113748;28;20450;-72
2021/06/16 02:04:41;;;;;;;3.03;2.30;;;20.70;59.40;;;;;;5113357;28;20462;-73
2021/06/16 02:07:13;;;;;;;4.60;2.67;;;20.70;59.20;;;;;;5114468;28;20443;-73
2021/06/16 02:09:40;;;;;;;4.80;2.40;;;20.70;59.10;;;;;;5113806;28;20476;-73
2021/06/16 02:12:11;;;;;;;3.83;2.50;;;20.70;59.60;;;;;;5113718;28;20448;-73
2021/06/16 02:14:40;;;;;;;6.97;2.57;;;20.70;59.50;;;;;;5113536;28;20458;-73
2021/06/16 02:17:11;;;;;;;5.10;2.90;;;20.70;59.10;;;;;;5113612;28;20806;-73
2021/06/16 02:19:41;;;;;;;5.30;2.87;;;20.70;59.20;;;;;;5113575;28;20449;-73
2021/06/16 02:22:09;;;;;;;2.80;2.47;;;20.70;59.50;;;;;;5113530;28;20449;-73
2021/06/16 02:24:37;;;;;;;4.00;2.27;;;20.70;59.40;;;;;;5113507;28;20512;-73
2021/06/16 02:27:04;;;;;;;4.20;2.50;;;20.60;59.20;;;;;;5113576;28;20454;-73
2021/06/16 02:29:31;;;;;;;6.37;2.43;;;20.60;59.40;;;;;;5113566;28;20446;-73
2021/06/16 02:32:00;;;;;;;8.40;3.03;;;20.50;59.50;;;;;;5113277;28;20948;-73
2021/06/16 02:34:29;;;;;;;5.40;2.17;;;20.50;59.60;;;;;;5114561;28;20469;-73
2021/06/16 02:37:00;;;;;;;5.20;2.60;;;20.50;59.70;;;;;;5126912;28;20463;-73
2021/06/16 02:39:34;;;;;;;4.97;2.40;;;20.50;59.80;;;;;;5119417;28;20435;-73
2021/06/16 02:42:02;;;;;;;8.10;2.63;;;20.40;59.80;;;;;;5114986;28;20897;-73
2021/06/16 02:44:29;;;;;;;6.50;2.80;;;20.40;59.90;;;;;;5113934;28;20482;-73
2021/06/16 02:46:57;;;;;;;4.00;2.70;;;20.40;60.70;;;;;;5113750;28;20426;-73
2021/06/16 02:49:30;;;;;;;5.83;2.47;;;20.30;60.00;;;;;;5113732;28;20450;-73
2021/06/16 02:52:01;;;;;;;7.37;2.47;;;20.30;60.30;;;;;;5114753;28;20914;-73
2021/06/16 02:54:29;;;;;;;7.17;2.83;;;20.20;60.50;;;;;;5116829;28;20988;-72
2021/06/16 02:56:58;;;;;;;5.17;2.53;;;20.20;60.70;;;;;;5117041;28;20548;-73
2021/06/16 02:59:27;;;;;;;6.60;2.40;;;20.10;60.80;;;;;;5116503;28;20443;-73
2021/06/16 03:01:55;;;;;;;6.10;2.67;;;20.10;60.90;;;;;;5116743;28;20439;-73
2021/06/16 03:04:23;;;;;;;5.03;2.23;;;20.10;61.20;;;;;;5116591;28;20471;-73
2021/06/16 03:06:51;;;;;;;6.40;2.20;;;20.10;61.30;;;;;;5116479;28;20789;-73
2021/06/16 03:09:21;;;;;;;4.33;2.63;;;20.10;61.60;;;;;;5116569;28;20443;-73
2021/06/16 03:11:50;;;;;;;6.40;2.87;;;20.00;61.60;;;;;;5116558;28;20442;-73
2021/06/16 03:14:20;;;;;;;5.00;3.00;;;20.00;61.70;;;;;;5116490;28;20453;-73
2021/06/16 03:16:47;;;;;;;3.70;2.60;;;20.00;62.00;;;;;;5116452;28;20463;-73
2021/06/16 03:19:14;;;;;;;6.60;2.90;;;20.00;62.10;;;;;;5116437;28;20450;-73
2021/06/16 03:21:43;;;;;;;7.23;2.60;;;20.00;62.30;;;;;;5116449;28;20435;-73
2021/06/16 03:24:11;;;;;;;8.80;2.77;;;20.00;62.40;;;;;;5116282;28;20442;-73
2021/06/16 03:26:40;;;;;;;8.83;3.40;;;20.00;62.60;;;;;;5116298;28;20511;-73
2021/06/16 03:29:07;;;;;;;6.00;2.77;;;20.00;62.80;;;;;;5115909;28;20442;-73
2021/06/16 03:31:35;;;;;;;8.20;3.33;;;20.00;62.90;;;;;;5115974;28;20450;-73
2021/06/16 03:34:01;;;;;;;4.90;3.00;;;19.90;63.00;;;;;;5116081;28;20447;-73
2021/06/16 03:36:29;;;;;;;5.63;2.47;;;19.90;62.80;;;;;;5116144;28;20467;-73
2021/06/16 03:38:56;;;;;;;4.60;2.23;;;19.90;63.00;;;;;;5116067;28;20446;-73
2021/06/16 03:41:24;;;;;;;4.93;2.37;;;19.90;63.20;;;;;;5116013;28;20442;-73
2021/06/16 03:43:54;;;;;;;4.40;2.57;;;19.90;63.40;;;;;;5115977;28;20443;-73
2021/06/16 03:46:23;;;;;;;6.07;2.63;;;20.00;63.40;;;;;;5115902;28;20466;-73
2021/06/16 03:48:53;;;;;;;7.80;3.67;;;20.00;63.30;;;;;;5115871;28;20447;-73
2021/06/16 03:51:20;;;;;;;3.83;3.00;;;20.00;63.30;;;;;;5115893;28;20427;-73
2021/06/16 03:53:49;;;;;;;6.57;2.80;;;19.90;63.50;;;;;;5115641;28;20454;-73
2021/06/16 03:56:16;;;;;;;7.70;3.40;;;20.00;63.70;;;;;;5115565;28;20493;-73
2021/06/16 03:58:43;;;;;;;5.53;3.10;;;20.00;64.00;;;;;;5115692;28;20443;-73
2021/06/16 04:01:13;;;;;;;5.90;3.17;;;20.00;64.30;;;;;;5115881;28;20438;-73
2021/06/16 04:03:41;;;;;;;6.67;2.83;;;20.00;64.10;;;;;;5114475;28;20810;-73
2021/06/16 04:06:09;;;;;;;6.83;2.50;;;20.00;64.30;;;;;;5115627;28;20459;-73
2021/06/16 04:08:37;;;;;;;5.13;2.70;;;20.00;64.20;;;;;;5115781;28;20447;-73
2021/06/16 04:11:04;;;;;;;5.13;3.17;;;20.00;64.50;;;;;;5115437;28;20461;-73
2021/06/16 04:13:31;;;;;;;12.83;3.00;;;20.10;64.80;;;;;;5115519;28;20449;-73
2021/06/16 04:15:58;;;;;;;7.20;3.20;;;20.10;64.90;;;;;;5115260;28;20487;-73
2021/06/16 04:18:29;;;;;;;7.70;3.23;;;20.10;64.70;;;;;;5115357;28;20928;-73
2021/06/16 04:20:56;;;;;;;9.53;3.10;;;20.20;65.00;;;;;;5115350;28;20550;-73
2021/06/16 04:23:23;;;;;;;5.57;2.47;;;20.10;64.90;;;;;;5115285;28;20435;-73
2021/06/16 04:25:49;;;;;;;7.03;3.13;;;20.10;65.30;;;;;;5115085;28;20459;-72
2021/06/16 04:28:16;;;;;;;8.73;2.87;;;20.10;64.70;;;;;;5115386;28;20447;-72
2021/06/16 04:30:43;;;;;;;8.50;3.47;;;20.20;64.40;;;;;;5115257;28;20447;-72
2021/06/16 04:33:10;;;;;;;7.13;2.73;;;20.20;64.60;;;;;;5115304;28;20446;-74
2021/06/16 04:35:38;;;;;;;6.93;3.30;;;20.20;65.00;;;;;;5114908;28;20474;-72
2021/06/16 04:38:05;;;;;;;11.63;3.30;;;20.20;65.70;;;;;;5115099;28;20446;-74
2021/06/16 04:40:31;;;;;;;5.20;2.80;;;20.20;65.30;;;;;;5114849;28;20949;-72
2021/06/16 04:42:58;;;;;;;5.77;3.03;;;20.20;65.40;;;;;;5114862;28;20439;-72
2021/06/16 04:45:25;;;;;;;6.33;3.10;;;20.20;65.80;;;;;;5114802;28;20508;-72
2021/06/16 04:47:52;;;;;;;5.63;3.50;;;20.20;65.70;;;;;;5114916;28;20443;-72
2021/06/16 04:50:19;;;;;;;8.50;3.40;;;20.30;65.80;;;;;;5114408;28;20443;-72
2021/06/16 04:52:47;;;;;;;8.37;3.63;;;20.30;66.10;;;;;;5114513;28;20466;-72
2021/06/16 04:55:14;;;;;;;8.53;3.33;;;20.30;66.00;;;;;;5114822;28;20524;-72
2021/06/16 04:57:41;;;;;;;8.07;4.40;;;20.40;66.30;;;;;;5114664;28;20459;-72
2021/06/16 05:00:10;;;;;;;5.63;3.53;;;20.50;66.80;;;;;;5114645;28;20444;-73
2021/06/16 05:02:37;;;;;;;9.23;3.67;;;20.50;66.40;;;;;;5114667;28;20431;-73
2021/06/16 05:05:05;;;;;;;8.33;3.70;;;20.50;66.90;;;;;;5114995;28;20459;-73
2021/06/16 05:07:32;;;;;;;7.70;3.37;;;20.50;67.60;;;;;;5115469;28;20423;-72
2021/06/16 05:10:00;;;;;;;5.90;3.90;;;20.60;67.70;;;;;;5116368;28;20419;-73
2021/06/16 05:12:27;;;;;;;4.80;3.90;;;20.60;68.10;;;;;;5114396;28;20447;-72
2021/06/16 05:14:54;;;;;;;8.13;4.30;;;20.60;68.00;;;;;;5114451;28;20463;-73
2021/06/16 05:17:21;;;;;;;5.57;3.60;;;20.60;68.20;;;;;;5114587;28;20478;-73
2021/06/16 05:19:55;;;;;;;5.07;4.10;;;20.70;67.30;;;;;;5114351;28;20453;-72
2021/06/16 05:22:22;;;;;;;5.87;4.17;;;20.70;67.30;;;;;;5114347;28;20427;-73
2021/06/16 05:24:48;;;;;;;8.20;4.37;;;20.80;67.70;;;;;;5114142;28;20534;-72
2021/06/16 05:27:17;;;;;;;8.40;4.07;;;20.80;67.80;;;;;;5114128;28;20447;-73
2021/06/16 05:29:44;;;;;;;6.50;4.80;;;20.90;67.80;;;;;;5114182;28;20450;-73
2021/06/16 05:32:10;;;;;;;5.90;4.00;;;20.90;68.30;;;;;;5114050;28;20450;-74
2021/06/16 05:34:37;;;;;;;5.47;4.57;;;21.00;68.10;;;;;;5114099;28;20471;-73
2021/06/16 05:37:07;;;;;;;7.60;5.50;;;21.10;68.40;;;;;;5113993;28;20556;-72
2021/06/16 05:39:34;;;;;;;5.60;4.20;;;21.10;68.20;;;;;;5113992;28;20492;-72
2021/06/16 05:42:00;;;;;;;7.70;4.57;;;21.20;67.50;;;;;;5114081;28;20435;-74
2021/06/16 05:44:28;;;;;;;10.63;4.47;;;21.20;67.70;;;;;;5113921;28;20463;-73
2021/06/16 05:46:55;;;;;;;5.10;4.37;;;21.30;67.90;;;;;;5114007;28;20450;-72
2021/06/16 05:49:28;;;;;;;5.70;4.97;;;21.40;67.80;;;;;;5113676;28;20915;-72
2021/06/16 05:51:55;;;;;;;6.63;4.30;;;21.50;67.50;;;;;;5113613;28;20854;-72
2021/06/16 05:54:23;;;;;;;8.10;4.90;;;21.60;67.20;;;;;;5113667;28;20481;-72
2021/06/16 05:56:50;;;;;;;7.20;4.37;;;21.70;67.30;;;;;;5113624;28;20470;-74
2021/06/16 05:59:17;;;;;;;4.77;3.83;;;21.80;66.90;;;;;;5113765;28;20438;-73
2021/06/16 06:01:45;;;;;;;7.70;4.87;;;21.80;66.40;;;;;;5113784;28;20432;-73
2021/06/16 06:04:12;;;;;;;7.87;4.53;;;22.00;66.30;;;;;;5113745;28;20442;-72
2021/06/16 06:06:39;;;;;;;7.50;5.00;;;22.10;65.60;;;;;;5113328;28;20789;-73
2021/06/16 06:09:07;;;;;;;5.87;4.80;;;22.20;65.50;;;;;;5113819;28;20454;-73
2021/06/16 06:11:36;;;;;;;5.57;4.17;;;22.40;65.60;;;;;;5113747;28;20435;-73
2021/06/16 06:14:03;;;;;;;6.63;4.53;;;22.50;64.80;;;;;;5113322;28;20817;-73
2021/06/16 06:16:30;;;;;;;5.87;4.63;;;22.60;63.70;;;;;;5113220;28;21022;-75
2021/06/16 06:18:58;;;;;;;5.83;4.67;;;22.70;63.40;;;;;;5113606;28;20443;-73
2021/06/16 06:22:28;;;;;;;4.40;3.60;;;22.80;62.30;;;;;;5113274;28;20442;-75
2021/06/16 06:24:55;;;;;;;4.87;4.27;;;23.00;61.00;;;;;;5113608;28;20521;-77
2021/06/16 06:27:21;;;;;;;6.63;4.50;;;23.20;60.70;;;;;;5115611;28;20446;-75
2021/06/16 06:29:48;;;;;;;4.90;4.10;;;23.40;59.90;;;;;;5117163;28;20971;-75
2021/06/16 06:32:15;;;;;;;5.80;4.27;;;23.50;59.40;;;;;;5117418;28;20430;-76
2021/06/16 06:34:43;;;;;;;7.43;4.20;;;23.60;59.10;;;;;;5116965;28;20832;-76
2021/06/16 06:37:10;;;;;;;7.83;5.03;;;23.80;59.00;;;;;;5117301;28;20549;-75
2021/06/16 06:39:37;;;;;;;4.40;4.00;;;23.90;58.80;;;;;;5116734;28;20453;-75
2021/06/16 06:42:04;;;;;;;6.40;4.27;;;24.10;57.90;;;;;;5116984;28;20854;-75
2021/06/16 06:44:31;;;;;;;6.63;4.90;;;24.20;57.60;;;;;;5117164;28;20467;-75
2021/06/16 06:46:58;;;;;;;5.57;4.00;;;24.30;57.40;;;;;;5116825;28;20901;-75
2021/06/16 06:49:24;;;;;;;8.30;4.20;;;24.50;57.40;;;;;;5116984;28;20439;-75
2021/06/16 06:51:52;;;;;;;5.90;4.13;;;24.60;56.30;;;;;;5117049;28;20427;-75
2021/06/16 06:54:19;;;;;;;5.50;4.07;;;24.80;55.90;;;;;;5116621;28;20461;-75
2021/06/16 06:56:46;;;;;;;6.17;4.33;;;25.00;55.30;;;;;;5116826;28;20483;-75
2021/06/16 06:59:12;;;;;;;7.87;5.03;;;25.10;54.80;;;;;;5116865;28;20484;-75
2021/06/16 07:01:39;;;;;;;10.83;6.30;;;25.20;53.30;;;;;;5116811;28;20450;-75
2021/06/16 07:04:06;;;;;;;8.73;5.37;;;25.30;53.10;;;;;;5116951;28;20443;-75
2021/06/16 07:06:34;;;;;;;9.00;5.13;;;25.40;52.80;;;;;;5116814;28;20445;-75
2021/06/16 07:09:02;;;;;;;5.60;4.23;;;25.40;53.00;;;;;;5116695;28;20443;-75
2021/06/16 07:11:29;;;;;;;5.77;4.67;;;25.50;53.60;;;;;;5116726;28;20427;-75
2021/06/16 07:13:55;;;;;;;7.83;4.20;;;25.70;53.20;;;;;;5116276;28;20951;-75
2021/06/16 07:16:22;;;;;;;7.10;4.47;;;25.90;52.90;;;;;;5116076;28;20996;-75
2021/06/16 07:18:49;;;;;;;5.37;4.97;;;26.00;52.60;;;;;;5116180;28;20439;-75
2021/06/16 07:21:16;;;;;;;5.87;4.50;;;26.20;52.50;;;;;;5117323;28;20423;-75
2021/06/16 07:23:43;;;;;;;4.70;4.30;;;26.40;52.10;;;;;;5116463;28;20435;-75
2021/06/16 07:26:11;;;;;;;6.80;4.57;;;26.60;51.90;;;;;;5116305;28;20463;-75
2021/06/16 07:28:38;;;;;;;4.37;3.97;;;26.60;50.60;;;;;;5116380;28;20430;-75
2021/06/16 07:31:05;;;;;;;5.53;5.00;;;26.80;50.90;;;;;;5115933;28;20936;-75
2021/06/16 07:33:32;;;;;;;5.07;4.67;;;26.90;50.60;;;;;;5116221;28;20447;-75
2021/06/16 07:35:59;;;;;;;8.00;4.40;;;27.10;50.90;;;;;;5116240;28;20459;-75
2021/06/16 07:38:25;;;;;;;4.63;4.30;;;27.20;50.50;;;;;;5114650;28;20470;-75
2021/06/16 07:40:52;;;;;;;4.83;4.40;;;27.40;50.00;;;;;;5116069;28;20443;-75
2021/06/16 07:43:20;;;;;;;5.10;4.40;;;27.60;49.70;;;;;;5116154;28;20438;-75
2021/06/16 07:45:47;;;;;;;3.53;3.23;;;27.70;49.60;;;;;;5115752;28;20984;-75
2021/06/16 07:48:14;;;;;;;4.10;3.57;;;27.90;49.10;;;;;;5116043;28;20430;-75
2021/06/16 07:50:42;;;;;;;5.47;4.93;;;28.10;48.80;;;;;;5115930;28;20423;-75
2021/06/16 07:53:09;;;;;;;4.30;3.80;;;28.30;48.80;;;;;;5115555;28;20467;-75
2021/06/16 07:55:38;;;;;;;4.90;4.47;;;28.50;48.60;;;;;;5115400;28;20498;-75
2021/06/16 07:58:06;;;;;;;4.97;4.50;;;28.80;48.30;;;;;;5115685;28;20467;-75
2021/06/16 08:00:35;;;;;;;5.07;4.60;;;28.90;47.60;;;;;;5115703;28;20451;-75
2021/06/16 08:03:01;;;;;;;4.63;4.33;;;29.10;46.30;;;;;;5115975;28;20435;-75
2021/06/16 08:05:28;;;;;;;5.30;4.27;;;29.20;45.80;;;;;;5115614;28;20479;-75
2021/06/16 08:07:55;;;;;;;11.17;4.50;;;29.40;46.10;;;;;;5115717;28;20435;-75
2021/06/16 08:10:22;;;;;;;4.23;3.93;;;29.60;46.40;;;;;;5115219;28;20808;-75
2021/06/16 08:12:48;;;;;;;6.33;5.40;;;29.70;45.40;;;;;;5115499;28;20486;-75
2021/06/16 08:15:15;;;;;;;5.23;4.77;;;30.00;45.50;;;;;;5115426;28;20470;-75
2021/06/16 08:17:43;;;;;;;6.07;5.57;;;30.10;45.20;;;;;;5115319;28;20479;-75
2021/06/16 08:20:11;;;;;;;3.97;3.67;;;30.30;44.80;;;;;;5115047;28;20447;-75
2021/06/16 08:22:37;;;;;;;5.47;4.40;;;30.40;43.50;;;;;;5115329;28;20447;-76
2021/06/16 08:25:06;;;;;;;6.17;5.43;;;30.40;42.70;;;;;;5114892;28;20512;-75
2021/06/16 08:27:33;;;;;;;9.23;5.10;;;30.50;42.50;;;;;;5115313;28;20461;-75
2021/06/16 08:30:00;;;;;;;4.90;4.50;;;30.60;42.70;;;;;;5114925;28;20965;-75
2021/06/16 08:32:27;;;;;;;5.37;4.87;;;30.70;43.60;;;;;;5115144;28;20443;-76
2021/06/16 08:34:55;;;;;;;5.87;5.17;;;30.80;43.60;;;;;;5115016;28;20892;-75
2021/06/16 08:37:22;;;;;;;5.33;4.83;;;31.00;43.50;;;;;;5114729;28;21045;-75
2021/06/16 08:39:49;;;;;;;6.93;5.77;;;31.20;43.40;;;;;;5114935;28;20442;-75
2021/06/16 08:42:16;;;;;;;11.27;7.40;;;31.40;43.20;;;;;;5114581;28;20948;-75
2021/06/16 08:44:42;;;;;;;5.90;5.30;;;31.50;42.50;;;;;;5114744;28;20467;-77
2021/06/16 08:47:09;;;;;;;13.13;7.10;;;31.70;41.70;;;;;;5114847;28;20415;-76
2021/06/16 08:49:36;;;;;;;12.27;7.90;;;31.90;41.20;;;;;;5114529;28;20434;-76
2021/06/16 08:52:05;;;;;;;5.67;4.80;;;32.00;39.70;;;;;;5114965;28;20423;-76
2021/06/16 08:54:32;;;;;;;10.90;7.20;;;32.00;39.70;;;;;;5114516;28;20474;-76
2021/06/16 08:56:58;;;;;;;7.00;6.30;;;32.10;40.90;;;;;;5115670;28;20431;-76
2021/06/16 08:59:25;;;;;;;6.47;5.87;;;32.30;41.80;;;;;;5114629;28;20433;-76
2021/06/16 09:01:52;;;;;;;5.93;5.43;;;32.50;41.40;;;;;;5114593;28;20426;-76
2021/06/16 09:04:45;;;;;;;6.53;5.93;;;32.70;40.90;;;;;;5114487;28;20438;-76
2021/06/16 09:07:17;;;;;;;6.60;5.97;;;32.90;40.60;;;;;;5114473;28;20920;-76
2021/06/16 09:09:45;;;;;;;7.53;6.00;;;33.10;41.00;;;;;;5115326;28;20449;-76
2021/06/16 09:12:16;;;;;;;6.40;5.30;;;33.20;40.70;;;;;;5114368;28;20462;-76
2021/06/16 09:14:53;;;;;;;6.80;6.10;;;33.40;40.40;;;;;;5113988;28;20967;-76
2021/06/16 09:17:22;;;;;;;6.77;6.10;;;33.70;39.60;;;;;;5114172;28;20480;-77
2021/06/16 09:19:56;;;;;;;8.33;6.20;;;34.00;39.20;;;;;;5114353;28;20449;-77
2021/06/16 09:22:32;;;;;;;7.03;6.33;;;34.20;38.60;;;;;;5114030;28;20432;-77
2021/06/16 09:25:03;;;;;;;6.73;6.07;;;34.40;38.30;;;;;;5114278;28;20462;-77
2021/06/16 09:27:41;;;;;;;9.07;6.10;;;34.60;38.20;;;;;;5114390;28;20828;-76
2021/06/16 09:30:29;;;;;;;7.60;6.13;;;34.80;38.00;;;;;;5114300;28;20496;-76
2021/06/16 09:32:58;;;;;;;7.50;6.67;;;35.00;37.90;;;;;;5114192;28;20437;-77
2021/06/16 09:35:27;;;;;;;6.50;5.90;;;35.10;38.40;;;;;;5113728;28;20470;-77
2021/06/16 09:37:56;;;;;;;8.93;6.90;;;35.30;37.60;;;;;;5114025;28;20474;-77
2021/06/16 09:40:27;;;;;;;8.10;7.30;;;35.50;37.00;;;;;;5113759;28;20449;-77
2021/06/16 09:42:59;;;;;;;9.10;6.27;;;35.70;36.30;;;;;;5113856;28;20438;-76
2021/06/16 09:45:26;;;;;;;7.40;6.70;;;35.90;36.20;;;;;;5113855;28;20887;-75
2021/06/16 09:47:53;;;;;;;7.20;6.60;;;36.10;35.90;;;;;;5113928;28;20445;-75
2021/06/16 09:50:22;;;;;;;9.00;6.67;;;36.30;35.90;;;;;;5113945;28;20487;-77
2021/06/16 09:52:50;;;;;;;7.87;6.80;;;36.50;35.80;;;;;;5113542;28;20454;-75
2021/06/16 09:55:27;;;;;;;7.47;6.57;;;36.70;35.00;;;;;;5113957;28;20470;-76
2021/06/16 09:58:02;;;;;;;7.17;6.30;;;37.00;33.60;;;;;;5113605;28;20516;-75
2021/06/16 10:00:30;;;;;;;7.63;6.77;;;37.10;33.30;;;;;;5113980;28;20431;-76
2021/06/16 10:03:14;;;;;;;6.47;5.90;;;37.40;33.20;;;;;;5117051;28;20449;-75
2021/06/16 10:06:07;;;;;;;7.53;6.63;;;37.70;33.00;;;;;;5118170;28;20227;-75
2021/06/16 10:08:35;;;;;;;9.27;7.07;;;38.00;32.20;;;;;;5117922;28;20180;-75
2021/06/16 10:11:04;;;;;;;7.53;6.60;;;38.30;30.00;;;;;;5117895;28;20208;-75
2021/06/16 10:13:31;;;;;;;7.30;6.57;;;38.40;30.60;;;;;;5117785;28;20544;-77
2021/06/16 10:16:00;;;;;;;9.33;6.30;;;38.60;29.60;;;;;;5117820;28;20220;-76
2021/06/16 10:18:28;;;;;;;7.50;6.80;;;38.80;28.80;;;;;;5117723;28;20220;-77
2021/06/16 10:20:56;;;;;;;7.63;6.28;;;38.90;29.00;;;;;;5117695;28;20201;-77
2021/06/16 10:23:24;;;;;;;8.77;6.75;;;39.10;29.80;;;;;;5117488;28;20555;-76
2021/06/16 10:25:51;;;;;;;8.30;6.30;;;39.00;27.50;;;;;;5117487;28;20220;-75
2021/06/16 10:28:22;;;;;;;10.85;6.90;;;39.20;28.20;;;;;;5117516;28;20196;-76
2021/06/16 10:30:54;;;;;;;6.93;6.30;;;39.50;28.80;;;;;;5117255;28;20559;-77
2021/06/16 10:33:30;;;;;;;7.35;5.82;;;39.70;28.90;;;;;;5117530;28;20292;-76
2021/06/16 10:36:17;;;;;;;7.30;6.70;;;40.20;29.10;;;;;;5117365;28;20224;-76
2021/06/16 10:39:15;;;;;;;7.38;5.63;;;40.80;27.20;;;;;;5117277;28;20219;-76
2021/06/16 10:41:56;;;;;;;9.13;6.50;;;41.30;27.20;;;;;;5117352;28;20235;-77
2021/06/16 10:44:24;;;;;;;6.38;5.70;;;41.90;26.80;;;;;;5117587;28;20181;-77
2021/06/16 10:46:52;;;;;;;7.38;6.75;;;42.20;25.30;;;;;;5117551;28;20203;-77
2021/06/16 10:49:54;;;;;;;5.55;5.03;;;42.70;25.40;;;;;;5117060;28;20635;-76
2021/06/16 10:52:24;;;;;;;6.30;5.80;;;43.10;24.80;;;;;;5117150;28;20184;-76
2021/06/16 10:54:57;;;;;;;10.95;6.00;;;43.50;24.90;;;;;;5117063;28;20216;-76
2021/06/16 10:57:24;;;;;;;6.40;5.43;;;43.90;24.80;;;;;;5117461;28;20196;-77
2021/06/16 11:00:05;;;;;;;7.47;5.85;;;44.30;24.60;;;;;;5117855;28;20181;-77
2021/06/16 11:03:02;;;;;;;7.03;4.82;;;44.90;24.50;;;;;;5117043;28;20680;-78
2021/06/16 11:05:38;;;;;;;5.30;4.80;;;45.50;23.20;;;;;;5116401;28;20718;-77
2021/06/16 11:08:07;;;;;;;5.90;5.40;;;45.90;22.30;;;;;;5116788;28;20176;-76
2021/06/16 11:10:56;;;;;;;8.80;6.55;;;46.40;22.20;;;;;;5116682;28;20561;-77
2021/06/16 11:13:42;;;;;;;10.40;6.80;;;46.70;19.50;;;;;;5116737;28;20551;-76
2021/06/16 11:16:52;;;;;;;7.45;5.15;;;46.60;20.00;;;;;;5117116;28;20603;-76
2021/06/16 11:19:41;;;;;;;6.07;5.53;;;46.50;20.00;;;;;;5117222;28;20208;-76
2021/06/16 11:22:37;;;;;;;7.65;5.80;;;46.60;21.10;;;;;;5119010;28;20185;-77
2021/06/16 11:25:34;;;;;;;9.48;6.38;;;46.70;21.50;;;;;;5116805;28;20231;-76
2021/06/16 11:28:11;;;;;;;7.45;5.70;;;46.90;21.30;;;;;;5110641;28;20523;-77
2021/06/16 11:30:57;;;;;;;7.07;6.10;;;47.20;20.90;;;;;;5116708;28;20272;-77
2021/06/16 11:33:34;;;;;;;8.93;6.20;;;47.50;21.20;;;;;;5117351;28;20193;-77
2021/06/16 11:36:07;;;;;;;8.63;5.55;;;47.80;19.90;;;;;;5116429;28;20224;-76
2021/06/16 11:38:36;;;;;;;7.95;5.45;;;48.00;19.70;;;;;;5116688;28;20205;-77
2021/06/16 11:41:06;;;;;;;5.53;5.03;;;48.10;18.30;;;;;;5115953;28;20697;-77
2021/06/16 11:43:37;;;;;;;5.75;5.05;;;48.30;18.90;;;;;;5116673;28;20242;-77
2021/06/16 11:46:07;;;;;;;7.70;6.15;;;48.60;19.40;;;;;;5116579;28;20773;-77
2021/06/16 11:48:34;;;;;;;9.05;6.35;;;48.70;18.60;;;;;;5116720;28;20260;-77
2021/06/16 11:51:01;;;;;;;6.88;6.22;;;48.60;17.60;;;;;;5116387;28;20200;-77
2021/06/16 11:53:30;;;;;;;6.80;5.40;;;48.60;18.20;;;;;;5116132;28;20704;-77
2021/06/16 11:56:00;;;;;;;6.13;5.53;;;48.70;18.40;;;;;;5116493;28;20225;-77
2021/06/16 11:58:29;;;;;;;5.85;5.25;;;48.90;18.60;;;;;;5116385;28;20307;-77
2021/06/16 12:01:12;;;;;;;8.63;5.82;;;49.10;17.70;;;;;;5116548;28;20204;-77
2021/06/16 12:03:41;;;;;;;6.97;5.47;;;49.30;17.00;;;;;;5116174;28;20181;-77
2021/06/16 12:06:11;;;;;;;5.93;5.53;;;49.50;17.50;;;;;;5116459;28;20227;-77
2021/06/16 12:08:37;;;;;;;5.78;5.18;;;49.70;18.20;;;;;;5115994;28;20196;-77
2021/06/16 12:11:17;;;;;;;5.72;4.65;;;49.70;18.00;;;;;;5116104;28;20241;-77
2021/06/16 12:13:55;;;;;;;10.90;6.00;;;49.80;17.70;;;;;;5116702;28;20283;-77
2021/06/16 12:16:27;;;;;;;5.47;4.93;;;50.00;17.30;;;;;;5116371;28;20564;-77
2021/06/16 12:18:54;;;;;;;9.23;5.78;;;50.20;17.20;;;;;;5115351;28;20674;-76
2021/06/16 12:21:21;;;;;;;6.55;5.95;;;50.30;16.40;;;;;;5115999;28;20196;-76
2021/06/16 12:23:48;;;;;;;6.68;6.07;;;49.70;16.60;;;;;;5115459;28;20200;-76
2021/06/16 12:26:20;;;;;;;5.88;5.32;;;49.30;16.70;;;;;;5115877;28;20224;-76
2021/06/16 12:28:48;;;;;;;5.97;5.55;;;49.10;18.70;;;;;;5115512;28;20253;-77
2021/06/16 12:31:24;;;;;;;7.15;5.35;;;49.00;18.70;;;;;;5115345;28;20640;-77
2021/06/16 12:34:02;;;;;;;5.50;5.07;;;48.90;18.10;;;;;;5116111;28;20188;-76
2021/06/16 12:36:29;;;;;;;5.80;5.20;;;49.20;18.40;;;;;;5115671;28;20227;-76
2021/06/16 12:39:07;;;;;;;6.05;5.45;;;49.70;18.30;;;;;;5115230;28;20577;-77
2021/06/16 12:41:35;;;;;;;6.10;5.20;;;50.10;18.20;;;;;;5115902;28;20220;-77
2021/06/16 12:44:13;;;;;;;7.55;5.88;;;50.60;16.90;;;;;;5115470;28;20188;-77
2021/06/16 12:46:51;;;;;;;7.72;5.28;;;50.90;15.30;;;;;;5115459;28;20215;-77
2021/06/16 12:49:19;;;;;;;6.05;4.80;;;50.60;15.90;;;;;;5114851;28;20193;-77
2021/06/16 12:51:53;;;;;;;6.07;5.38;;;50.60;16.70;;;;;;5115665;28;20189;-76
2021/06/16 12:54:31;;;;;;;6.25;5.05;;;50.70;17.00;;;;;;5115680;28;20216;-76
2021/06/16 12:57:03;;;;;;;6.30;4.85;;;50.70;16.10;;;;;;5115760;28;20192;-76
2021/06/16 12:59:38;;;;;;;5.57;5.07;;;50.90;17.10;;;;;;5116137;28;20216;-78